Time;durP1;ratioP1;P1;durP2;ratioP2;P2;SDS_P1;SDS_P2;PMS_P1;PMS_P2;Temp;Humidity;BMP_temperature;BMP_pressure;BME280_temperature;BME280_humidity;BME280_pressure;Samples;Min_cycle;Max_cycle;Signal;HPM_P1;HPM_P2
2021/12/29 04:04:49;;;;;;;7.10;3.00;;;;;;;-2.63;57.98;100214.06;1768319;78;20963;-63
2021/12/29 04:07:15;;;;;;;5.70;3.00;;;;;;;-2.74;58.13;100222.56;1774235;79;21033;-63
2021/12/29 04:09:43;;;;;;;7.58;2.98;;;;;;;-2.84;58.18;100222.38;1783133;78;20921;-58
2021/12/29 04:12:12;;;;;;;8.78;3.90;;;;;;;-2.99;58.49;100220.64;1790799;79;21167;-63
2021/12/29 04:14:38;;;;;;;8.25;3.50;;;;;;;-3.10;58.59;100218.78;1784014;79;21049;-60
2021/12/29 12:06:49;;;;;;;16.07;8.65;;;;;;;-1.97;57.27;100252.97;1715182;81;21037;-69
2021/12/29 12:09:20;;;;;;;13.22;7.20;;;;;;;-1.92;57.23;100251.09;1680307;81;21049;-70
2021/12/29 12:12:03;;;;;;;13.93;7.55;;;;;;;-1.86;56.91;100253.50;1714078;81;21147;-69
2021/12/29 12:14:36;;;;;;;13.48;6.78;;;;;;;-1.82;56.61;100252.50;1712866;82;21721;-70
2021/12/29 12:17:15;;;;;;;12.28;7.22;;;;;;;-1.81;56.42;100245.62;1693170;82;21200;-70
2021/12/29 12:19:42;;;;;;;17.90;9.28;;;;;;;-1.87;56.44;100254.37;1662181;83;21086;-70
2021/12/29 12:22:18;;;;;;;16.30;10.35;;;;;;;-1.92;56.53;100258.83;1693995;82;21012;-69
2021/12/29 12:24:54;;;;;;;;;;;;;;;-1.95;56.77;100260.20;1714212;81;21141;-70
2021/12/29 12:27:40;;;;;;;16.45;8.63;;;;;;;-1.97;56.80;100263.29;1687285;81;20216;-70
2021/12/29 12:30:24;;;;;;;13.53;7.20;;;;;;;-2.04;56.91;100263.08;1729169;81;21521;-70
2021/12/29 12:32:55;;;;;;;31.82;22.48;;;;;;;-2.11;57.07;100267.58;1724278;81;21139;-70
2021/12/29 12:35:35;;;;;;;13.80;7.80;;;;;;;-2.13;57.16;100268.91;1712879;81;21125;-68
2021/12/29 12:38:27;;;;;;;16.02;10.38;;;;;;;-2.10;57.12;100270.53;1727284;81;21104;-69
2021/12/29 12:41:10;;;;;;;28.70;17.67;;;;;;;-2.14;57.13;100280.09;1731440;81;21632;-68
2021/12/29 12:43:57;;;;;;;16.67;8.03;;;;;;;-2.17;57.15;100275.05;1731314;81;21066;-69
2021/12/29 12:46:33;;;;;;;;;;;;;;;-2.15;57.20;100273.69;1730276;81;21163;-68
2021/12/29 12:49:17;;;;;;;14.38;7.33;;;;;;;-2.11;57.24;100272.73;1721535;81;20183;-67
2021/12/29 12:52:03;;;;;;;15.50;7.55;;;;;;;-2.15;57.14;100277.14;1711667;81;21062;-68
2021/12/29 12:54:34;;;;;;;;;;;;;;;-2.17;57.09;100284.50;1741343;81;21057;-68
2021/12/29 12:57:01;;;;;;;14.78;8.35;;;;;;;-2.14;57.32;100290.41;1691330;81;21143;-68
2021/12/29 12:59:46;;;;;;;27.37;17.37;;;;;;;-2.08;57.34;100295.85;1717996;81;21078;-69
2021/12/29 13:02:17;;;;;;;13.45;7.03;;;;;;;-2.05;57.28;100298.34;1714985;81;21179;-68
2021/12/29 13:05:17;;;;;;;13.15;6.75;;;;;;;-1.98;57.14;100294.69;1728684;81;21074;-69
2021/12/29 13:07:51;;;;;;;12.43;7.40;;;;;;;-1.92;57.15;100295.77;1719961;81;21116;-69
2021/12/29 13:10:25;;;;;;;12.55;7.62;;;;;;;-1.85;56.93;100304.17;1715821;81;21125;-69
2021/12/29 13:12:58;;;;;;;13.05;6.50;;;;;;;-1.85;56.87;100302.88;1722098;81;21168;-70
2021/12/29 13:15:22;;;;;;;13.10;6.72;;;;;;;-1.83;56.82;100308.86;1709811;81;21022;-69
2021/12/29 13:17:49;;;;;;;12.60;6.67;;;;;;;-1.81;56.83;100301.91;1722507;81;21085;-69
2021/12/29 13:20:16;;;;;;;15.75;7.70;;;;;;;-1.62;56.53;100313.80;1716014;81;22229;-69
2021/12/29 13:22:43;;;;;;;13.13;7.00;;;;;;;-1.62;56.53;100313.80;1722104;81;21217;-69
2021/12/29 13:25:19;;;;;;;12.95;7.50;;;;;;;-1.55;56.35;100310.58;1690413;82;22495;-69
2021/12/29 13:28:00;;;;;;;;;;;;;;;-1.46;56.17;100314.19;1693994;82;21069;-69
2021/12/29 13:30:24;;;;;;;13.03;7.25;;;;;;;-1.44;55.94;100314.97;1713902;80;20265;-69
2021/12/29 13:32:52;;;;;;;16.85;8.15;;;;;;;-1.46;56.04;100323.22;1695272;82;21132;-69
2021/12/29 13:35:34;;;;;;;15.90;7.75;;;;;;;-1.34;56.04;100329.27;1713624;81;21074;-69
2021/12/29 13:38:04;;;;;;;14.70;7.55;;;;;;;-1.34;56.04;100329.27;1685574;82;21003;-69
2021/12/29 13:40:41;;;;;;;16.27;7.37;;;;;;;-1.28;55.82;100337.72;1725816;81;21168;-69
2021/12/29 13:43:20;;;;;;;13.48;7.00;;;;;;;-1.23;55.61;100334.08;1715043;80;21100;-69
2021/12/29 13:45:47;;;;;;;15.70;7.95;;;;;;;-1.26;55.35;100331.63;1729333;81;21374;-66
2021/12/29 13:48:17;;;;;;;14.40;7.28;;;;;;;-1.27;55.53;100339.41;1705350;81;21117;-69
2021/12/29 13:51:05;;;;;;;13.55;6.83;;;;;;;-1.23;55.60;100337.12;1711423;81;21094;-68
2021/12/29 13:53:33;;;;;;;14.85;7.45;;;;;;;-1.21;55.56;100345.66;1709276;81;21057;-68
2021/12/29 13:56:14;;;;;;;13.03;7.17;;;;;;;-1.21;55.55;100349.09;1695284;81;21124;-68
2021/12/29 13:58:41;;;;;;;14.43;6.95;;;;;;;-1.20;55.71;100342.19;1724872;81;21093;-69
2021/12/29 14:01:08;;;;;;;15.13;7.42;;;;;;;-1.19;55.92;100349.05;1695837;82;21097;-64
2021/12/29 14:03:36;;;;;;;17.82;8.58;;;;;;;-1.19;55.89;100351.18;1720162;81;21006;-60
2021/12/29 14:06:06;;;;;;;14.60;6.92;;;;;;;-1.21;55.81;100362.01;1700013;81;21051;-67
2021/12/29 14:08:35;;;;;;;14.58;7.83;;;;;;;-1.21;55.81;100362.01;1723808;80;21125;-69
2021/12/29 14:11:07;;;;;;;15.40;7.10;;;;;;;-1.17;55.73;100361.00;1731319;81;21034;-69
2021/12/29 14:13:40;;;;;;;15.35;7.53;;;;;;;-1.13;55.77;100367.78;1700362;82;21261;-69
2021/12/29 14:16:10;;;;;;;13.08;6.92;;;;;;;-1.10;55.71;100368.11;1726597;81;21093;-69
2021/12/29 14:18:52;;;;;;;14.87;7.33;;;;;;;-0.96;55.19;100373.69;1694866;82;21064;-70
2021/12/29 14:26:12;;;;;;;13.20;7.40;;;;;;;-0.97;55.40;100375.86;1776108;78;22813;-62
2021/12/29 14:28:39;;;;;;;12.88;7.53;;;;;;;-1.01;55.42;100380.74;1749628;80;21077;-61
2021/12/29 14:31:13;;;;;;;11.08;7.53;;;;;;;-0.98;55.37;100381.91;1737167;80;21152;-61
2021/12/29 14:33:44;;;;;;;13.48;7.42;;;;;;;-0.91;55.13;100386.43;1741448;80;21062;-61
2021/12/29 14:36:13;;;;;;;13.22;7.55;;;;;;;-0.92;55.18;100389.06;1752616;80;21031;-61
2021/12/29 14:38:40;;;;;;;13.45;8.23;;;;;;;-0.92;55.18;100389.06;1739586;81;21092;-61
2021/12/29 14:41:19;;;;;;;15.70;9.00;;;;;;;-0.94;55.08;100389.14;1749559;80;21008;-61
2021/12/29 14:43:50;;;;;;;15.48;8.18;;;;;;;-0.97;55.14;100386.66;1747784;80;22738;-61
2021/12/29 14:46:16;;;;;;;13.40;7.20;;;;;;;-0.99;55.21;100393.16;1730355;81;21042;-61
2021/12/29 14:48:52;;;;;;;13.93;8.70;;;;;;;-1.01;55.32;100399.25;1746599;80;21468;-61
2021/12/29 14:51:18;;;;;;;16.15;9.23;;;;;;;-1.08;55.36;100401.64;1741436;80;21814;-61
2021/12/29 14:53:46;;;;;;;16.75;8.33;;;;;;;-1.11;55.60;100393.52;1733223;80;21051;-61
2021/12/29 14:56:17;;;;;;;15.72;8.28;;;;;;;-1.06;55.58;100395.55;1738423;80;21136;-60
2021/12/29 14:58:45;;;;;;;14.90;8.50;;;;;;;-1.02;55.52;100396.29;1743679;80;21074;-61
2021/12/29 15:01:17;;;;;;;16.73;8.53;;;;;;;-1.03;55.53;100396.71;1744288;80;21027;-61
2021/12/29 15:03:52;;;;;;;15.65;8.98;;;;;;;-1.05;55.49;100392.51;1749208;80;21599;-63
2021/12/29 15:06:31;;;;;;;15.70;8.83;;;;;;;-1.06;55.62;100405.01;1743687;80;21709;-61
2021/12/29 15:08:59;;;;;;;16.93;8.90;;;;;;;-1.06;55.82;100400.71;1746504;80;21153;-61
2021/12/29 15:11:26;;;;;;;18.07;9.73;;;;;;;-1.09;56.00;100399.94;1744664;80;21127;-61
2021/12/29 15:13:53;;;;;;;17.62;9.35;;;;;;;-1.09;56.00;100399.94;1739540;80;21079;-61
2021/12/29 15:16:19;;;;;;;19.05;8.20;;;;;;;-1.18;56.34;100397.20;1728200;81;21095;-61
2021/12/29 15:18:47;;;;;;;16.20;8.05;;;;;;;-1.23;56.26;100396.05;1730882;81;21554;-61
2021/12/29 15:21:15;;;;;;;13.88;7.05;;;;;;;-1.22;56.26;100390.45;1684986;81;21085;-61
2021/12/29 15:23:44;;;;;;;18.95;8.13;;;;;;;-1.22;56.27;100402.08;1712978;81;21078;-61
2021/12/29 15:26:19;;;;;;;12.78;7.55;;;;;;;-1.23;56.24;100393.46;1683161;83;21106;-61
2021/12/29 15:28:46;;;;;;;17.35;8.93;;;;;;;-1.23;56.24;100393.46;1675484;83;21593;-61
2021/12/29 15:31:14;;;;;;;18.57;8.55;;;;;;;-1.33;56.68;100394.22;1735131;80;21062;-62
2021/12/29 15:33:41;;;;;;;14.20;8.05;;;;;;;-1.38;56.83;100388.78;1741135;80;21019;-61
2021/12/29 15:36:10;;;;;;;13.30;7.58;;;;;;;-1.48;56.92;100397.23;1734981;80;20984;-62
2021/12/29 15:38:36;;;;;;;16.75;9.25;;;;;;;-1.56;57.23;100397.94;1734222;80;20971;-62
2021/12/29 15:41:05;;;;;;;19.07;9.53;;;;;;;-1.59;57.49;100401.89;1716736;80;21074;-62
2021/12/29 15:43:33;;;;;;;22.75;10.98;;;;;;;-1.57;57.66;100400.95;1723635;80;20918;-62
2021/12/29 15:45:59;;;;;;;18.32;9.75;;;;;;;-1.47;57.75;100408.42;1726674;80;21183;-62
2021/12/29 15:48:26;;;;;;;20.20;10.95;;;;;;;-1.42;57.56;100397.06;1715732;80;21555;-62
2021/12/29 15:50:54;;;;;;;18.15;10.53;;;;;;;-1.42;57.56;100397.06;1719860;81;21085;-62
2021/12/29 15:53:20;;;;;;;18.25;10.38;;;;;;;-1.41;57.40;100394.03;1725230;81;21020;-62
2021/12/29 15:55:47;;;;;;;18.07;10.90;;;;;;;-1.43;57.39;100401.84;1733690;80;21091;-62
2021/12/29 15:58:13;;;;;;;17.00;10.50;;;;;;;-1.40;57.48;100404.31;1736132;80;21811;-61
2021/12/29 16:00:43;;;;;;;17.25;10.88;;;;;;;-1.38;57.28;100405.55;1734822;80;21012;-62
2021/12/29 16:03:11;;;;;;;17.67;10.30;;;;;;;-1.38;57.29;100406.42;1733465;80;21555;-62
2021/12/29 16:05:38;;;;;;;19.95;10.30;;;;;;;-1.34;57.32;100405.42;1733163;80;21031;-62
2021/12/29 16:08:04;;;;;;;21.33;9.73;;;;;;;-1.34;57.32;100405.42;1723507;81;21661;-67
2021/12/29 16:10:34;;;;;;;18.73;11.05;;;;;;;-1.31;57.29;100417.41;1731681;80;21147;-60
2021/12/29 16:13:03;;;;;;;18.45;9.58;;;;;;;-1.31;57.29;100417.41;1726144;80;21083;-60
2021/12/29 16:15:30;;;;;;;20.43;10.58;;;;;;;-1.34;57.12;100415.75;1724519;80;21106;-61
2021/12/29 16:17:56;;;;;;;17.07;9.95;;;;;;;-1.32;57.29;100424.28;1729423;80;21115;-59
2021/12/29 16:20:23;;;;;;;20.82;10.32;;;;;;;-1.27;57.29;100422.03;1721983;81;21117;-59
2021/12/29 16:22:50;;;;;;;17.87;10.30;;;;;;;-1.21;57.15;100420.11;1730687;80;22357;-63
2021/12/29 16:25:17;;;;;;;17.98;8.93;;;;;;;-1.19;56.98;100415.73;1722141;81;21032;-61
2021/12/29 16:27:44;;;;;;;18.20;10.05;;;;;;;-1.17;56.91;100419.56;1742157;80;21055;-63
2021/12/29 16:30:15;;;;;;;16.70;9.00;;;;;;;-1.14;56.79;100424.18;1721502;80;21125;-63
2021/12/29 16:32:42;;;;;;;15.65;9.70;;;;;;;-1.17;56.81;100419.56;1722549;80;21074;-60
2021/12/29 16:35:09;;;;;;;16.15;9.53;;;;;;;-1.20;56.87;100420.94;1742943;80;21138;-60
2021/12/29 16:37:35;;;;;;;18.25;9.55;;;;;;;-1.14;56.81;100423.34;1741070;80;21484;-61
2021/12/29 16:40:04;;;;;;;18.00;9.50;;;;;;;-1.13;56.73;100419.84;1744482;80;21031;-62
2021/12/29 16:42:31;;;;;;;18.00;9.28;;;;;;;-1.12;56.76;100418.97;1740911;80;21043;-61
2021/12/29 16:44:57;;;;;;;18.15;10.00;;;;;;;-1.09;56.83;100420.59;1739720;80;21047;-61
2021/12/29 16:47:26;;;;;;;17.90;8.53;;;;;;;-1.06;56.67;100427.83;1742048;80;21074;-62
2021/12/29 16:49:54;;;;;;;16.95;8.58;;;;;;;-1.01;56.42;100427.23;1738960;80;21125;-62
2021/12/29 16:52:20;;;;;;;16.67;9.25;;;;;;;-1.01;56.34;100426.37;1742434;81;21059;-61
2021/12/29 16:54:48;;;;;;;20.88;9.50;;;;;;;-1.02;56.33;100428.58;1739875;80;21062;-62
2021/12/29 16:57:15;;;;;;;15.90;8.80;;;;;;;-1.08;56.53;100422.30;1738377;80;21032;-61
2021/12/29 16:59:41;;;;;;;17.50;9.05;;;;;;;-1.07;56.56;100424.00;1741203;80;21163;-60
2021/12/29 17:02:08;;;;;;;17.30;8.73;;;;;;;-1.07;56.57;100421.42;1741746;80;21686;-60
2021/12/29 17:04:35;;;;;;;16.42;9.63;;;;;;;-1.09;56.63;100426.63;1738942;80;21030;-60
2021/12/29 17:07:01;;;;;;;14.73;8.60;;;;;;;-1.10;56.62;100431.38;1714813;80;21523;-61
2021/12/29 17:09:28;;;;;;;16.80;9.13;;;;;;;-1.12;56.64;100435.30;1724630;81;21046;-60
2021/12/29 17:11:55;;;;;;;15.85;8.80;;;;;;;-1.13;56.68;100437.92;1738017;80;21591;-62
2021/12/29 17:14:22;;;;;;;17.42;8.20;;;;;;;-1.09;56.71;100439.54;1740724;80;21049;-61
2021/12/29 17:16:49;;;;;;;15.53;8.58;;;;;;;-1.03;56.53;100445.78;1746693;80;21591;-60
2021/12/29 17:19:17;;;;;;;15.00;8.08;;;;;;;-0.97;56.25;100446.89;1741052;80;21113;-61
2021/12/29 17:21:45;;;;;;;13.95;7.80;;;;;;;-0.96;55.98;100451.61;1740954;80;21031;-61
2021/12/29 17:24:12;;;;;;;15.68;8.08;;;;;;;-1.01;55.81;100447.89;1736189;80;21115;-62
2021/12/29 17:26:40;;;;;;;14.30;8.90;;;;;;;-0.98;55.83;100452.94;1744893;80;21595;-61
2021/12/29 17:29:08;;;;;;;19.25;10.30;;;;;;;-0.99;55.80;100452.56;1749439;80;21085;-61
2021/12/29 17:31:35;;;;;;;17.00;8.90;;;;;;;-1.00;55.77;100453.90;1743379;80;21035;-61
2021/12/29 17:34:02;;;;;;;19.98;9.75;;;;;;;-1.03;55.77;100449.66;1745087;80;21114;-61
2021/12/29 17:36:28;;;;;;;18.30;9.78;;;;;;;-1.05;55.76;100442.41;1730210;81;21192;-61
2021/12/29 17:38:55;;;;;;;15.28;8.73;;;;;;;-1.09;55.67;100446.42;1751211;80;21526;-62
2021/12/29 17:41:22;;;;;;;16.87;9.68;;;;;;;-1.09;55.67;100446.42;1732032;81;21555;-62
2021/12/29 17:43:51;;;;;;;14.80;9.15;;;;;;;-1.12;55.79;100449.95;1749355;80;21117;-62
2021/12/29 17:46:21;;;;;;;17.23;8.98;;;;;;;-1.15;55.68;100439.72;1748611;80;21604;-62
2021/12/29 17:48:48;;;;;;;20.40;10.00;;;;;;;-1.17;55.90;100441.05;1752434;80;21144;-61
2021/12/29 17:51:14;;;;;;;16.55;9.18;;;;;;;-1.14;56.14;100443.55;1744305;80;21461;-60
2021/12/29 17:53:44;;;;;;;16.85;9.68;;;;;;;-1.09;55.81;100442.12;1749050;80;21082;-60
2021/12/29 17:56:09;;;;;;;17.65;10.20;;;;;;;-1.09;55.81;100442.12;1743612;80;21353;-61
2021/12/29 17:58:36;;;;;;;19.23;9.90;;;;;;;-1.07;55.80;100448.08;1747943;80;21038;-61
2021/12/29 18:01:03;;;;;;;16.00;10.43;;;;;;;-1.03;55.95;100452.24;1752888;80;21109;-60
2021/12/29 18:03:31;;;;;;;18.10;10.85;;;;;;;-0.99;55.80;100450.44;1750839;80;21059;-61
2021/12/29 18:05:58;;;;;;;19.10;11.93;;;;;;;-1.00;55.91;100452.15;1749277;80;20983;-61
2021/12/29 18:08:25;;;;;;;21.90;11.57;;;;;;;-0.99;56.02;100449.14;1745444;80;21097;-61
2021/12/29 18:10:52;;;;;;;23.10;11.30;;;;;;;-0.96;56.04;100449.89;1732161;80;21078;-62
2021/12/29 18:13:18;;;;;;;19.70;11.18;;;;;;;-0.95;55.93;100451.56;1740851;80;23322;-61
2021/12/29 18:15:45;;;;;;;22.10;10.80;;;;;;;-0.96;55.88;100455.48;1739010;80;21046;-61
2021/12/29 18:18:12;;;;;;;19.90;11.93;;;;;;;-1.00;55.81;100453.44;1753173;80;21051;-62
2021/12/29 18:20:40;;;;;;;22.98;13.13;;;;;;;-0.99;55.92;100457.73;1745331;80;21078;-61
2021/12/29 18:23:07;;;;;;;21.02;10.65;;;;;;;-0.94;55.88;100452.42;1746981;80;21082;-62
2021/12/29 18:25:35;;;;;;;23.92;12.33;;;;;;;-0.94;56.09;100458.89;1739182;80;21159;-62
2021/12/29 18:28:04;;;;;;;20.75;11.53;;;;;;;-0.94;56.09;100458.89;1730751;80;21032;-62
2021/12/29 18:30:31;;;;;;;18.50;11.18;;;;;;;-0.98;55.66;100452.94;1728823;80;21511;-61
2021/12/29 18:32:58;;;;;;;21.05;11.63;;;;;;;-1.02;55.77;100461.69;1735817;80;21528;-61
2021/12/29 18:35:24;;;;;;;17.92;11.50;;;;;;;-1.02;55.77;100461.69;1740237;80;21051;-61
2021/12/29 18:37:51;;;;;;;19.82;11.33;;;;;;;-1.09;56.03;100465.36;1733574;80;21481;-61
2021/12/29 18:40:19;;;;;;;20.27;10.65;;;;;;;-1.09;56.03;100465.36;1731457;80;21063;-61
2021/12/29 18:42:46;;;;;;;20.10;11.15;;;;;;;-1.06;55.96;100467.86;1735321;80;21043;-61
2021/12/29 18:45:14;;;;;;;20.12;11.08;;;;;;;-1.04;56.01;100468.65;1730404;80;21591;-62
2021/12/29 18:47:41;;;;;;;19.27;11.20;;;;;;;-1.01;55.96;100467.27;1735502;80;21023;-61
2021/12/29 18:50:10;;;;;;;20.25;10.75;;;;;;;-1.00;55.94;100468.94;1739733;80;21154;-62
2021/12/29 18:52:37;;;;;;;18.65;10.98;;;;;;;-1.00;55.85;100467.65;1730020;80;21535;-61
2021/12/29 18:55:09;;;;;;;19.60;11.05;;;;;;;-0.98;55.79;100472.31;1722901;81;21167;-62
2021/12/29 18:57:35;;;;;;;20.25;10.80;;;;;;;-1.00;55.77;100476.69;1732954;80;21485;-61
2021/12/29 19:00:02;;;;;;;19.77;10.68;;;;;;;-1.00;55.70;100475.40;1735904;80;21023;-61
2021/12/29 19:02:29;;;;;;;17.15;9.58;;;;;;;-1.00;55.70;100475.40;1720429;81;21214;-61
2021/12/29 19:04:55;;;;;;;19.25;11.00;;;;;;;-1.01;55.69;100476.73;1735563;80;21090;-60
2021/12/29 19:07:23;;;;;;;19.62;10.53;;;;;;;-1.04;55.70;100478.98;1737667;80;21039;-61
2021/12/29 19:09:49;;;;;;;16.77;9.63;;;;;;;-1.07;55.86;100485.53;1739138;80;21123;-60
2021/12/29 19:12:16;;;;;;;15.65;9.88;;;;;;;-1.07;55.98;100484.23;1725264;81;21062;-61
2021/12/29 19:14:45;;;;;;;18.80;11.15;;;;;;;-1.05;56.05;100482.44;1725792;81;21547;-61
2021/12/29 19:17:11;;;;;;;21.48;12.63;;;;;;;-1.05;56.05;100482.44;1718690;81;21004;-60
2021/12/29 19:19:40;;;;;;;20.68;12.47;;;;;;;-1.01;55.89;100484.06;1735161;80;21134;-61
2021/12/29 19:22:09;;;;;;;22.80;13.32;;;;;;;-1.01;55.84;100476.31;1732817;80;21106;-61
2021/12/29 19:24:39;;;;;;;24.57;13.30;;;;;;;-1.02;55.79;100486.69;1730890;80;21074;-61
2021/12/29 19:27:06;;;;;;;20.90;12.37;;;;;;;-1.03;55.78;100484.53;1720082;81;21880;-60
2021/12/29 19:29:32;;;;;;;20.57;12.78;;;;;;;-1.04;55.75;100484.15;1731634;80;21035;-61
2021/12/29 19:31:59;;;;;;;22.42;12.90;;;;;;;-1.05;55.66;100493.23;1738005;80;21116;-61
2021/12/29 19:34:31;;;;;;;24.47;13.35;;;;;;;-1.09;55.89;100487.31;1734997;80;21038;-61
2021/12/29 19:37:05;;;;;;;21.57;12.53;;;;;;;-1.10;55.91;100492.07;1719223;81;21106;-61
2021/12/29 19:39:32;;;;;;;21.02;12.15;;;;;;;-1.06;55.87;100502.73;1736999;80;21114;-62
2021/12/29 19:42:00;;;;;;;22.70;12.33;;;;;;;-1.07;55.85;100505.34;1738448;80;21126;-62
2021/12/29 19:44:28;;;;;;;19.25;12.37;;;;;;;-1.04;56.25;100511.69;1732978;80;21082;-60
2021/12/29 19:46:55;;;;;;;19.32;12.25;;;;;;;-1.04;56.25;100511.69;1732079;80;21066;-60
2021/12/29 19:49:22;;;;;;;17.50;10.63;;;;;;;-1.04;56.15;100513.84;1719070;81;21071;-60
2021/12/29 19:51:50;;;;;;;17.87;10.32;;;;;;;-1.01;56.02;100518.92;1741652;80;21216;-59
2021/12/29 19:54:19;;;;;;;20.12;10.72;;;;;;;-1.03;55.91;100517.27;1736173;80;21036;-59
2021/12/29 19:56:46;;;;;;;19.42;10.63;;;;;;;-1.03;56.26;100523.72;1731307;80;21515;-62
2021/12/29 19:59:14;;;;;;;21.17;11.38;;;;;;;-1.03;56.26;100523.72;1737472;80;21039;-63
2021/12/29 20:01:41;;;;;;;22.25;12.88;;;;;;;-1.07;56.29;100527.30;1718293;81;22332;-60
2021/12/29 20:04:08;;;;;;;18.73;11.60;;;;;;;-1.16;56.80;100540.02;1729003;80;21212;-60
2021/12/29 20:06:36;;;;;;;17.23;10.58;;;;;;;-1.16;56.80;100540.02;1724814;80;21038;-60
2021/12/29 20:09:04;;;;;;;20.85;12.05;;;;;;;-1.20;56.88;100541.84;1735862;80;22194;-60
2021/12/29 20:11:32;;;;;;;25.30;14.23;;;;;;;-1.22;57.13;100540.21;1735162;80;21028;-60
2021/12/29 20:14:00;;;;;;;30.37;18.35;;;;;;;-1.25;57.13;100544.16;1730447;80;21091;-61
2021/12/29 20:16:26;;;;;;;24.20;17.32;;;;;;;-1.22;57.32;100547.50;1734509;80;21222;-60
2021/12/29 20:18:54;;;;;;;25.77;13.98;;;;;;;-1.22;57.32;100547.50;1732202;80;21532;-60
2021/12/29 20:21:21;;;;;;;26.90;13.15;;;;;;;-1.22;57.34;100544.09;1736542;80;21099;-60
2021/12/29 20:23:47;;;;;;;21.52;14.63;;;;;;;-1.22;57.34;100544.09;1736076;80;21054;-61
2021/12/29 20:26:14;;;;;;;24.35;12.73;;;;;;;-1.25;57.39;100537.71;1736979;81;21146;-61
2021/12/29 20:28:41;;;;;;;26.52;13.80;;;;;;;-1.24;57.34;100534.25;1730265;80;22249;-61
2021/12/29 20:31:11;;;;;;;21.50;13.68;;;;;;;-1.21;57.36;100537.59;1721264;82;21075;-61
2021/12/29 20:33:39;;;;;;;26.17;14.90;;;;;;;-1.19;57.43;100535.80;1737688;80;21052;-59
2021/12/29 20:36:05;;;;;;;27.00;15.05;;;;;;;-1.18;57.50;100540.51;1720089;81;21559;-60
2021/12/29 20:38:32;;;;;;;29.18;17.95;;;;;;;-1.18;57.46;100543.96;1734005;80;21118;-60
2021/12/29 20:40:59;;;;;;;25.72;16.27;;;;;;;-1.18;57.32;100549.55;1720359;81;21490;-60
2021/12/29 20:43:25;;;;;;;21.33;13.78;;;;;;;-1.23;57.40;100547.09;1738461;80;21039;-60
2021/12/29 20:45:52;;;;;;;21.70;13.25;;;;;;;-1.22;57.39;100548.80;1732520;80;21103;-61
2021/12/29 20:48:19;;;;;;;22.98;13.35;;;;;;;-1.15;57.45;100558.50;1719813;80;21149;-61
2021/12/29 20:50:46;;;;;;;27.02;13.75;;;;;;;-1.12;57.15;100570.04;1737250;80;21145;-60
2021/12/29 20:53:12;;;;;;;22.20;12.65;;;;;;;-1.12;57.15;100570.04;1738828;80;21765;-61
2021/12/29 20:55:39;;;;;;;25.90;15.13;;;;;;;-1.16;57.22;100565.84;1718692;80;21619;-60
2021/12/29 20:58:06;;;;;;;28.87;14.23;;;;;;;-1.19;57.06;100564.66;1740730;80;21131;-60
2021/12/29 21:00:32;;;;;;;21.45;11.65;;;;;;;-1.28;57.30;100572.19;1740214;80;21623;-61
2021/12/29 21:02:59;;;;;;;28.15;14.53;;;;;;;-1.35;57.57;100566.36;1736723;80;21078;-61
2021/12/29 21:05:26;;;;;;;23.87;15.85;;;;;;;-1.39;57.80;100573.80;1745824;80;21279;-61
2021/12/29 21:07:54;;;;;;;25.55;15.00;;;;;;;-1.45;57.80;100576.53;1737227;80;21496;-61
2021/12/29 21:10:24;;;;;;;24.35;14.25;;;;;;;-1.51;58.04;100577.56;1700304;82;20999;-61
2021/12/29 21:12:51;;;;;;;25.80;15.72;;;;;;;-1.51;58.07;100578.84;1734702;80;21020;-61
2021/12/29 21:15:23;;;;;;;30.37;15.88;;;;;;;-1.51;58.17;100572.84;1736111;80;21031;-62
2021/12/29 21:17:55;;;;;;;23.75;14.35;;;;;;;-1.32;58.33;100569.31;1735158;80;21079;-61
2021/12/29 21:20:22;;;;;;;20.10;12.82;;;;;;;-1.23;57.81;100574.66;1737425;80;21056;-62
2021/12/29 21:22:50;;;;;;;20.85;12.63;;;;;;;-1.23;57.81;100574.66;1738881;80;21125;-61
2021/12/29 21:25:17;;;;;;;26.02;13.90;;;;;;;-1.24;57.57;100569.11;1735391;82;21051;-62
2021/12/29 21:27:45;;;;;;;18.62;11.68;;;;;;;-1.26;57.66;100569.15;1720501;81;21137;-62
2021/12/29 21:30:13;;;;;;;24.82;13.10;;;;;;;-1.21;57.68;100577.61;1745743;80;21087;-61
2021/12/29 21:32:42;;;;;;;25.08;13.45;;;;;;;-1.21;57.63;100583.20;1748133;80;20959;-61
2021/12/29 21:35:09;;;;;;;23.15;12.70;;;;;;;-1.26;57.31;100578.61;1740515;80;21554;-61
2021/12/29 21:37:38;;;;;;;19.87;12.13;;;;;;;-1.33;57.45;100581.38;1747453;80;21102;-61
2021/12/29 21:40:07;;;;;;;21.12;12.30;;;;;;;-1.33;57.75;100590.84;1739088;80;21078;-61
2021/12/29 21:42:36;;;;;;;22.00;12.33;;;;;;;-1.32;57.52;100585.64;1746361;80;21588;-61
2021/12/29 21:45:04;;;;;;;23.20;12.30;;;;;;;-1.40;57.55;100590.61;1716985;81;21126;-61
2021/12/29 21:47:31;;;;;;;23.25;12.23;;;;;;;-1.45;57.75;100587.31;1723572;80;21091;-60
2021/12/29 21:49:57;;;;;;;22.25;12.03;;;;;;;-1.47;57.58;100590.39;1739349;80;21066;-60
2021/12/29 21:52:23;;;;;;;20.30;12.45;;;;;;;-1.52;57.73;100587.92;1748013;80;21042;-61
2021/12/29 21:54:50;;;;;;;21.05;11.70;;;;;;;-1.58;57.69;100584.20;1734102;80;21219;-61
2021/12/29 21:57:17;;;;;;;20.02;11.48;;;;;;;-1.56;58.00;100587.61;1729113;80;21075;-61
2021/12/29 21:59:43;;;;;;;19.20;11.60;;;;;;;-1.51;57.85;100587.05;1722336;82;21065;-61
2021/12/29 22:02:10;;;;;;;19.48;11.97;;;;;;;-1.52;57.60;100591.79;1719971;80;21070;-61
2021/12/29 22:04:36;;;;;;;18.10;11.30;;;;;;;-1.57;57.82;100593.20;1742502;80;21571;-60
2021/12/29 22:07:03;;;;;;;20.50;11.57;;;;;;;-1.60;57.96;100592.44;1746957;80;21075;-60
2021/12/29 22:09:30;;;;;;;22.00;12.13;;;;;;;-1.57;58.04;100584.62;1739724;80;21118;-60
2021/12/29 22:11:56;;;;;;;21.85;12.15;;;;;;;-1.55;58.03;100594.00;1745273;80;21059;-61
2021/12/29 22:14:22;;;;;;;21.17;12.18;;;;;;;-1.55;58.00;100595.73;1741371;80;21051;-61
2021/12/29 22:16:49;;;;;;;24.18;12.63;;;;;;;-1.55;58.02;100599.61;1743298;80;21992;-61
2021/12/29 22:19:16;;;;;;;18.55;11.85;;;;;;;-1.55;58.10;100604.31;1741961;80;21152;-61
2021/12/29 22:21:43;;;;;;;20.75;12.58;;;;;;;-1.52;58.16;100608.11;1723657;82;21035;-61
2021/12/29 22:24:10;;;;;;;17.62;10.20;;;;;;;-1.54;58.10;100602.16;1742753;80;21602;-61
2021/12/29 22:26:36;;;;;;;19.42;11.85;;;;;;;-1.56;58.13;100600.06;1739230;80;21115;-61
2021/12/29 22:29:03;;;;;;;19.45;12.18;;;;;;;-1.56;58.13;100600.06;1735686;80;21095;-61
2021/12/29 22:31:30;;;;;;;21.25;11.93;;;;;;;-1.58;57.83;100607.00;1738082;80;21072;-61
2021/12/29 22:33:56;;;;;;;21.35;11.97;;;;;;;-1.60;57.86;100610.50;1720999;81;21035;-61
2021/12/29 22:36:24;;;;;;;17.55;10.63;;;;;;;-1.63;58.11;100610.15;1737238;80;21114;-61
2021/12/29 22:38:50;;;;;;;22.17;12.23;;;;;;;-1.60;58.06;100604.05;1712344;81;21052;-62
2021/12/29 22:41:17;;;;;;;20.72;11.88;;;;;;;-1.60;57.95;100604.05;1737204;82;21024;-61
2021/12/29 22:43:47;;;;;;;24.75;12.53;;;;;;;-1.58;57.98;100600.97;1719609;81;21075;-60
2021/12/29 22:46:14;;;;;;;19.80;12.33;;;;;;;-1.52;57.75;100601.66;1722725;81;21548;-61
2021/12/29 22:48:43;;;;;;;21.10;12.82;;;;;;;-1.52;57.75;100601.66;1735693;80;20992;-61
2021/12/29 22:51:10;;;;;;;21.77;12.68;;;;;;;-1.47;57.84;100615.74;1737229;80;21036;-62
2021/12/29 22:53:36;;;;;;;23.18;13.55;;;;;;;-1.46;57.88;100615.29;1741449;80;21079;-61
2021/12/29 22:56:05;;;;;;;20.25;12.47;;;;;;;-1.45;57.88;100611.38;1733570;80;21143;-62
2021/12/29 22:58:32;;;;;;;20.43;12.78;;;;;;;-1.43;57.63;100621.24;1733215;80;21096;-62
2021/12/29 23:01:04;;;;;;;24.63;13.98;;;;;;;-1.41;57.58;100626.34;1725420;81;21090;-60
2021/12/29 23:03:31;;;;;;;22.98;11.95;;;;;;;-1.41;57.67;100623.75;1738847;80;21469;-61
2021/12/29 23:05:58;;;;;;;26.23;16.25;;;;;;;-1.39;57.80;100623.30;1736482;82;21077;-61
2021/12/29 23:08:26;;;;;;;32.13;17.70;;;;;;;-1.38;57.73;100621.09;1720343;81;21194;-61
2021/12/29 23:10:56;;;;;;;27.07;16.52;;;;;;;-1.38;57.73;100621.09;1733333;80;21047;-61
2021/12/29 23:13:25;;;;;;;27.75;17.40;;;;;;;-1.42;57.96;100622.92;1737600;80;21573;-61
2021/12/29 23:15:53;;;;;;;28.35;17.87;;;;;;;-1.41;58.08;100630.20;1735362;80;20997;-61
2021/12/29 23:18:19;;;;;;;33.25;19.55;;;;;;;-1.43;58.09;100626.41;1720036;81;21023;-61
2021/12/29 23:20:48;;;;;;;34.35;19.57;;;;;;;-1.43;58.41;100625.54;1738424;80;21071;-61